createdAt,value
2023-05-10T00:01:19.302Z,19.27
2023-05-10T00:06:21.241Z,18.05
2023-05-10T00:11:23.303Z,16.65
2023-05-10T00:16:24.935Z,16.98
2023-05-10T00:21:26.450Z,14.48
2023-05-10T00:26:27.941Z,13.27
2023-05-10T00:31:29.469Z,11.60
2023-05-10T00:36:32.162Z,10.07
2023-05-10T00:41:33.761Z,8.63
2023-05-10T00:46:35.464Z,8.70
2023-05-10T00:51:37.522Z,7.28
2023-05-10T00:56:39.057Z,8.68
2023-05-10T01:01:40.889Z,8.70
2023-05-10T01:06:42.605Z,7.68
2023-05-10T01:11:44.127Z,7.35
2023-05-10T01:16:45.640Z,8.85
2023-05-10T01:22:06.737Z,7.85
2023-05-10T01:27:38.058Z,7.00
2023-05-10T01:32:47.895Z,7.45
2023-05-10T01:38:00.911Z,7.95
2023-05-10T01:43:03.773Z,8.32
2023-05-10T01:48:09.933Z,8.10
2023-05-10T01:53:12.632Z,8.93
2023-05-10T01:58:32.902Z,8.63
2023-05-10T02:03:34.439Z,8.73
2023-05-10T02:08:36.287Z,10.48
2023-05-10T02:13:37.770Z,14.82
2023-05-10T02:18:39.283Z,15.75
2023-05-10T02:23:40.768Z,17.58
2023-05-10T02:28:42.278Z,18.95
2023-05-10T02:33:43.773Z,19.30
2023-05-10T02:38:45.574Z,18.25
2023-05-10T02:43:47.064Z,19.42
2023-05-10T02:48:48.582Z,17.20
2023-05-10T02:53:50.064Z,16.95
2023-05-10T02:58:51.559Z,18.88
2023-05-10T03:03:53.067Z,18.25
2023-05-10T03:08:54.579Z,19.23
2023-05-10T03:14:18.298Z,20.55
2023-05-10T03:19:30.536Z,19.15
2023-05-10T03:24:32.051Z,18.42
2023-05-10T03:29:33.596Z,17.85
2023-05-10T03:34:35.097Z,18.45
2023-05-10T03:39:36.688Z,18.50
2023-05-10T03:44:39.443Z,15.20
2023-05-10T03:49:40.941Z,11.10
2023-05-10T03:54:42.412Z,10.18
2023-05-10T03:59:43.892Z,11.25
2023-05-10T04:04:45.403Z,12.57
2023-05-10T04:09:46.897Z,12.43
2023-05-10T04:14:48.421Z,13.43
2023-05-10T04:19:49.917Z,13.10
2023-05-10T04:24:51.432Z,14.90
2023-05-10T04:29:52.963Z,13.70
2023-05-10T04:34:54.449Z,10.75
2023-05-10T04:39:55.958Z,7.05
2023-05-10T04:44:57.444Z,5.95
2023-05-10T04:49:59.389Z,5.45
2023-05-10T04:55:00.883Z,4.28
2023-05-10T05:00:02.895Z,4.47
2023-05-10T05:05:04.610Z,4.70
2023-05-10T05:10:07.692Z,5.38
2023-05-10T05:15:10.693Z,5.82
2023-05-10T05:20:12.502Z,6.20
2023-05-10T05:25:14.108Z,5.38
2023-05-10T05:30:15.834Z,5.78
2023-05-10T05:35:17.803Z,6.63
2023-05-10T05:40:19.419Z,6.05
2023-05-10T05:45:21.094Z,6.20
2023-05-10T05:50:22.595Z,6.82
2023-05-10T05:55:25.282Z,6.35
2023-05-10T06:00:26.872Z,6.43
2023-05-10T06:10:31.487Z,5.43
2023-05-10T06:15:33.646Z,6.18
2023-05-10T06:20:35.173Z,4.90
2023-05-10T06:25:36.659Z,5.55
2023-05-10T06:30:38.319Z,5.75
2023-05-10T06:35:39.881Z,5.18
2023-05-10T06:40:44.289Z,5.63
2023-05-10T06:45:45.778Z,5.20
2023-05-10T06:50:47.332Z,4.70
2023-05-10T06:55:50.314Z,5.47
2023-05-10T07:00:51.876Z,5.30
2023-05-10T07:05:53.384Z,5.65
2023-05-10T07:10:54.883Z,6.28
2023-05-10T07:15:56.419Z,5.90
2023-05-10T07:20:58.405Z,7.25
2023-05-10T07:26:00.387Z,9.75
2023-05-10T07:31:01.934Z,5.82
2023-05-10T07:36:03.657Z,8.57
2023-05-10T07:41:05.154Z,5.25
2023-05-10T07:46:07.039Z,5.03
2023-05-10T07:51:10.376Z,4.88
2023-05-10T07:56:28.312Z,4.63
2023-05-10T08:01:31.373Z,5.43
2023-05-10T08:06:32.845Z,6.57
2023-05-10T08:11:35.118Z,4.70
2023-05-10T08:21:38.419Z,3.70
2023-05-10T08:26:40.009Z,1.50
2023-05-10T08:31:41.547Z,2.08
2023-05-10T08:36:43.045Z,2.70
2023-05-10T08:41:45.100Z,3.75
2023-05-10T08:46:47.427Z,3.78
2023-05-10T08:51:52.039Z,3.65
2023-05-10T08:56:54.298Z,4.63
2023-05-10T09:01:58.218Z,5.15
2023-05-10T09:06:59.801Z,5.13
2023-05-10T09:12:01.320Z,4.53
2023-05-10T09:17:02.869Z,5.38
2023-05-10T09:22:04.425Z,6.35
2023-05-10T09:27:06.204Z,6.72
2023-05-10T09:32:07.710Z,6.15
2023-05-10T09:37:09.331Z,4.85
2023-05-10T09:42:10.882Z,3.90
2023-05-10T09:47:12.384Z,4.13
2023-05-10T09:52:14.071Z,3.60
2023-05-10T09:57:22.782Z,3.20
2023-05-10T10:02:30.234Z,3.72
2023-05-10T10:07:31.857Z,3.00
2023-05-10T10:12:33.414Z,3.67
2023-05-10T10:17:34.918Z,3.85
2023-05-10T10:22:37.447Z,4.10
2023-05-10T10:33:28.947Z,3.42
2023-05-10T10:38:38.907Z,3.15
2023-05-10T10:43:40.398Z,2.50
2023-05-10T10:48:42.615Z,2.45
2023-05-10T10:53:44.184Z,2.55
2023-05-10T10:58:52.091Z,2.40
2023-05-10T11:03:59.314Z,2.35
2023-05-10T11:09:06.732Z,2.88
2023-05-10T11:14:08.331Z,2.50
2023-05-10T11:19:13.996Z,2.35
2023-05-10T11:24:26.775Z,2.08
2023-05-10T11:29:28.338Z,2.20
2023-05-10T11:34:31.374Z,2.35
2023-05-10T11:39:33.054Z,1.95
2023-05-10T11:44:34.531Z,1.90
2023-05-10T11:49:36.027Z,1.60
2023-05-10T11:54:37.601Z,2.00
2023-05-10T11:59:39.852Z,2.10
2023-05-10T12:04:42.757Z,2.17
2023-05-10T12:09:45.794Z,1.60
2023-05-10T12:14:51.274Z,2.78
2023-05-10T12:19:52.767Z,2.92
2023-05-10T12:24:54.272Z,2.40
2023-05-10T12:29:55.785Z,3.05
2023-05-10T12:34:57.280Z,3.15
2023-05-10T12:39:58.782Z,2.80
2023-05-10T12:45:00.295Z,3.55
2023-05-10T12:50:02.129Z,3.28
2023-05-10T12:55:04.181Z,4.50
2023-05-10T13:00:06.576Z,5.15
2023-05-10T13:05:08.278Z,3.50
2023-05-10T13:10:09.931Z,6.32
2023-05-10T13:15:11.559Z,5.10
2023-05-10T13:20:13.048Z,3.63
2023-05-10T13:25:14.565Z,2.90
2023-05-10T13:30:16.408Z,2.03
2023-05-10T13:35:18.111Z,2.00
2023-05-10T13:40:19.878Z,2.05
2023-05-10T13:45:21.842Z,2.30
2023-05-10T13:50:23.341Z,2.67
2023-05-10T13:55:24.833Z,4.03
2023-05-10T14:00:26.338Z,4.55
2023-05-10T14:05:28.203Z,4.40
2023-05-10T14:10:29.874Z,4.57
2023-05-10T14:15:31.677Z,5.30
2023-05-10T14:20:36.932Z,4.28
2023-05-10T14:25:39.057Z,6.30
2023-05-10T14:30:40.601Z,5.63
2023-05-10T14:35:42.149Z,10.65
2023-05-10T14:40:44.030Z,6.45
2023-05-10T14:45:45.834Z,7.22
2023-05-10T14:50:47.472Z,7.18
2023-05-10T14:55:48.964Z,7.80
2023-05-10T15:00:50.590Z,11.30
2023-05-10T15:05:53.051Z,10.73
2023-05-10T15:10:56.612Z,12.40
2023-05-10T15:15:58.216Z,10.95
2023-05-10T15:20:59.762Z,10.65
2023-05-10T15:26:01.540Z,12.25
2023-05-10T15:31:03.952Z,11.50
2023-05-10T15:36:05.561Z,10.77
2023-05-10T15:41:07.054Z,12.60
2023-05-10T15:46:08.626Z,10.18
2023-05-10T15:51:10.149Z,11.00
2023-05-10T15:56:11.852Z,9.35
2023-05-10T16:01:13.399Z,8.98
2023-05-10T16:06:14.942Z,9.13
2023-05-10T16:11:16.485Z,9.45
2023-05-10T16:16:18.212Z,9.90
2023-05-10T16:21:20.886Z,9.15
2023-05-10T16:31:24.405Z,8.95
2023-05-10T16:36:26.109Z,10.32
2023-05-10T16:41:27.598Z,9.25
2023-05-10T16:46:29.162Z,10.57
2023-05-10T16:51:30.735Z,8.98
2023-05-10T16:56:32.244Z,6.68
2023-05-10T17:01:33.878Z,6.13
2023-05-10T17:06:35.888Z,5.82
2023-05-10T17:11:37.536Z,6.43
2023-05-10T17:16:39.167Z,6.32
2023-05-10T17:21:40.760Z,5.60
2023-05-10T17:26:42.251Z,5.60
2023-05-10T17:31:43.821Z,4.82
2023-05-10T17:36:45.362Z,4.50
2023-05-10T17:41:46.888Z,3.47
2023-05-10T17:46:48.381Z,3.55
2023-05-10T17:51:50.437Z,2.67
2023-05-10T17:56:51.964Z,2.55
2023-05-10T18:01:53.474Z,1.90
2023-05-10T18:07:01.375Z,1.80
2023-05-10T18:12:03.219Z,1.63
2023-05-10T18:17:05.011Z,1.65
2023-05-10T18:22:08.934Z,1.55
2023-05-10T18:27:12.180Z,1.20
2023-05-10T18:32:13.936Z,2.40
2023-05-10T18:37:15.685Z,2.47
2023-05-10T18:42:17.470Z,1.85
2023-05-10T18:47:19.116Z,1.48
2023-05-10T18:52:20.818Z,5.05
2023-05-10T18:57:22.475Z,1.45
2023-05-10T19:02:25.315Z,1.38
2023-05-10T19:07:26.890Z,2.53
2023-05-10T19:12:28.548Z,1.58
2023-05-10T19:17:31.561Z,1.40
2023-05-10T19:22:45.464Z,1.75
2023-05-10T19:27:57.913Z,3.10
2023-05-10T19:32:59.543Z,2.47
2023-05-10T19:38:01.092Z,2.60
2023-05-10T19:43:03.076Z,2.05
2023-05-10T19:48:04.753Z,3.38
2023-05-10T19:53:06.362Z,1.70
2023-05-10T19:58:07.961Z,2.30
2023-05-10T20:03:09.638Z,1.00
2023-05-10T20:08:11.177Z,1.00
2023-05-10T20:13:12.718Z,1.30
2023-05-10T20:18:14.248Z,1.20
2023-05-10T20:23:15.755Z,1.48
2023-05-10T20:28:23.974Z,2.05
2023-05-10T20:33:25.703Z,1.20
2023-05-10T20:38:27.229Z,2.13
2023-05-10T20:43:29.157Z,1.70
2023-05-10T20:48:33.291Z,1.20
2023-05-10T20:53:34.803Z,1.25
2023-05-10T20:58:36.302Z,1.70
2023-05-10T21:03:37.812Z,1.60
2023-05-10T21:08:39.320Z,2.30
2023-05-10T21:13:40.806Z,1.92
2023-05-10T21:18:42.343Z,1.35
2023-05-10T21:23:46.418Z,1.67
2023-05-10T21:28:47.910Z,1.88
2023-05-10T21:33:49.431Z,1.30
2023-05-10T21:38:50.919Z,0.85
2023-05-10T21:43:52.401Z,0.70
2023-05-10T21:48:53.955Z,0.60
2023-05-10T21:53:55.457Z,0.60
2023-05-10T21:58:57.104Z,0.68
2023-05-10T22:03:58.607Z,0.85
2023-05-10T22:09:00.148Z,1.10
2023-05-10T22:14:01.641Z,1.33
2023-05-10T22:19:03.187Z,0.80
2023-05-10T22:24:05.243Z,0.90
2023-05-10T22:29:06.787Z,0.90
2023-05-10T22:34:08.337Z,0.90
2023-05-10T22:39:09.832Z,1.02
2023-05-10T22:44:11.335Z,1.10
2023-05-10T22:49:13.293Z,0.85
2023-05-10T22:54:14.796Z,0.80
2023-05-10T22:59:16.541Z,1.67
2023-05-10T23:04:18.125Z,1.10
2023-05-10T23:09:19.690Z,0.73
2023-05-10T23:14:21.172Z,0.90
2023-05-10T23:19:22.665Z,0.70
2023-05-10T23:24:24.153Z,0.95
2023-05-10T23:29:26.311Z,0.90
2023-05-10T23:34:27.872Z,0.85
2023-05-10T23:39:29.486Z,1.05
2023-05-10T23:44:31.500Z,0.55
2023-05-10T23:49:32.998Z,0.90
2023-05-10T23:54:34.562Z,1.08
2023-05-10T23:59:36.254Z,0.60
